createdAt,value
2022-09-15T00:05:56.420Z,91.55
2022-09-15T00:16:03.223Z,91.09
2022-09-15T00:26:24.098Z,92.53
2022-09-15T00:36:38.317Z,91.26
2022-09-15T00:47:21.455Z,91.12
2022-09-15T00:57:29.542Z,92.24
2022-09-15T01:07:42.470Z,91.34
2022-09-15T01:18:20.748Z,91.83
2022-09-15T01:29:50.787Z,92.83
2022-09-15T01:40:00.928Z,93.59
2022-09-15T01:50:23.530Z,92.77
2022-09-15T02:00:38.673Z,92.61
2022-09-15T02:11:05.955Z,93.15
2022-09-15T02:21:45.423Z,93.59
2022-09-15T02:31:55.721Z,92.77
2022-09-15T02:42:02.980Z,91.74
2022-09-15T02:52:18.783Z,91.66
2022-09-15T03:12:54.610Z,92.62
2022-09-15T03:23:04.915Z,93.27
2022-09-15T03:33:17.869Z,92.70
2022-09-15T03:43:48.991Z,92.40
2022-09-15T03:54:03.378Z,94.25
2022-09-15T04:04:15.890Z,96.25
2022-09-15T04:14:40.638Z,94.99
2022-09-15T05:20:27.725Z,92.47
2022-09-15T05:42:34.121Z,91.37
2022-09-15T07:33:38.987Z,87.36
2022-09-15T07:44:04.584Z,86.01
2022-09-15T07:54:38.857Z,85.04
2022-09-15T08:04:58.381Z,85.90
2022-09-15T08:36:22.877Z,80.22
2022-09-15T08:46:32.708Z,81.99
2022-09-15T08:56:44.855Z,84.31
2022-09-15T09:06:54.116Z,83.94
2022-09-15T09:17:23.521Z,84.08
2022-09-15T09:27:43.415Z,82.53
2022-09-15T09:37:52.961Z,80.56
2022-09-15T09:48:01.750Z,79.27
2022-09-15T09:58:24.347Z,80.47
2022-09-15T10:08:30.112Z,79.74
2022-09-15T10:18:37.234Z,79.35
2022-09-15T11:26:33.703Z,87.11
2022-09-15T12:11:44.115Z,86.32
2022-09-15T15:35:38.869Z,90.17
2022-09-15T16:07:39.919Z,92.29
2022-09-15T16:17:47.992Z,93.41
2022-09-15T16:28:05.533Z,93.73
2022-09-15T16:38:33.320Z,94.08
2022-09-15T17:21:03.921Z,94.70
2022-09-15T17:31:12.389Z,95.61
2022-09-15T17:41:15.607Z,96.08
2022-09-15T17:51:17.736Z,97.09
2022-09-15T18:01:19.450Z,99.85
2022-09-15T18:11:21.414Z,100.00
2022-09-15T18:21:25.318Z,100.00
2022-09-15T18:31:28.006Z,100.00
2022-09-15T18:41:30.196Z,100.00
2022-09-15T18:51:50.529Z,100.00
2022-09-15T19:01:54.274Z,100.00
2022-09-15T19:12:00.571Z,100.00
2022-09-15T19:22:12.046Z,100.00
2022-09-15T19:42:44.242Z,100.00
2022-09-15T19:53:34.816Z,100.00
2022-09-15T20:03:39.394Z,100.00
2022-09-15T20:13:44.799Z,100.00
2022-09-15T20:23:47.493Z,100.00
2022-09-15T20:33:49.546Z,100.00
2022-09-15T20:43:51.471Z,99.35
2022-09-15T20:53:54.352Z,98.61
2022-09-15T21:03:56.246Z,95.97
2022-09-15T21:13:57.914Z,96.34
2022-09-15T21:24:04.138Z,95.26
2022-09-15T21:34:05.946Z,96.00
2022-09-15T21:44:07.607Z,99.45
2022-09-15T21:54:10.108Z,98.72
2022-09-15T22:04:11.764Z,98.45
2022-09-15T22:14:14.437Z,96.48
2022-09-15T22:24:16.176Z,96.47
2022-09-15T22:34:17.815Z,95.71
2022-09-15T22:44:20.346Z,96.17
2022-09-15T22:54:23.865Z,94.78
2022-09-15T23:04:25.617Z,91.03
2022-09-15T23:14:27.443Z,91.87
2022-09-15T23:24:29.010Z,92.19
2022-09-15T23:34:30.705Z,91.46
2022-09-15T23:44:32.312Z,89.61
2022-09-15T23:54:34.002Z,90.13
